sensor_id;sensor_type;location;lat;lon;timestamp;P1;durP1;ratioP1;P2;durP2;ratioP2
5774;SDS011;2913;51.120;6.772;2023-08-01T00:01:04;3.35;;;0.80;;
5774;SDS011;2913;51.120;6.772;2023-08-01T00:03:32;4.93;;;0.80;;
5774;SDS011;2913;51.120;6.772;2023-08-01T00:06:00;8.73;;;1.02;;
5774;SDS011;2913;51.120;6.772;2023-08-01T00:08:26;4.95;;;0.77;;
5774;SDS011;2913;51.120;6.772;2023-08-01T00:10:51;7.57;;;1.13;;
5774;SDS011;2913;51.120;6.772;2023-08-01T00:13:17;9.30;;;0.82;;
5774;SDS011;2913;51.120;6.772;2023-08-01T00:15:42;7.40;;;1.10;;
5774;SDS011;2913;51.120;6.772;2023-08-01T00:18:08;2.28;;;1.00;;
5774;SDS011;2913;51.120;6.772;2023-08-01T00:20:34;2.75;;;0.82;;
5774;SDS011;2913;51.120;6.772;2023-08-01T00:23:02;3.13;;;0.88;;
5774;SDS011;2913;51.120;6.772;2023-08-01T00:25:32;4.13;;;1.05;;
5774;SDS011;2913;51.120;6.772;2023-08-01T00:27:58;5.32;;;0.80;;
5774;SDS011;2913;51.120;6.772;2023-08-01T00:30:25;7.18;;;1.17;;
5774;SDS011;2913;51.120;6.772;2023-08-01T00:32:51;2.67;;;0.93;;
5774;SDS011;2913;51.120;6.772;2023-08-01T00:35:20;1.75;;;0.80;;
5774;SDS011;2913;51.120;6.772;2023-08-01T00:37:46;2.33;;;0.90;;
5774;SDS011;2913;51.120;6.772;2023-08-01T00:40:13;3.17;;;0.90;;
5774;SDS011;2913;51.120;6.772;2023-08-01T00:42:41;7.05;;;0.90;;
5774;SDS011;2913;51.120;6.772;2023-08-01T00:45:09;5.43;;;1.00;;
5774;SDS011;2913;51.120;6.772;2023-08-01T00:47:35;4.22;;;0.80;;
5774;SDS011;2913;51.120;6.772;2023-08-01T00:50:04;5.32;;;0.90;;
5774;SDS011;2913;51.120;6.772;2023-08-01T00:52:30;1.33;;;0.73;;
5774;SDS011;2913;51.120;6.772;2023-08-01T00:54:56;3.13;;;0.70;;
5774;SDS011;2913;51.120;6.772;2023-08-01T00:57:21;2.47;;;0.85;;
5774;SDS011;2913;51.120;6.772;2023-08-01T00:59:47;5.68;;;0.65;;
5774;SDS011;2913;51.120;6.772;2023-08-01T01:02:15;7.18;;;0.93;;
5774;SDS011;2913;51.120;6.772;2023-08-01T01:04:43;4.18;;;0.43;;
5774;SDS011;2913;51.120;6.772;2023-08-01T01:07:09;2.47;;;0.38;;
5774;SDS011;2913;51.120;6.772;2023-08-01T01:09:35;7.55;;;0.40;;
5774;SDS011;2913;51.120;6.772;2023-08-01T01:12:00;1.77;;;0.30;;
5774;SDS011;2913;51.120;6.772;2023-08-01T01:14:26;9.43;;;0.63;;
5774;SDS011;2913;51.120;6.772;2023-08-01T01:16:53;3.63;;;0.55;;
5774;SDS011;2913;51.120;6.772;2023-08-01T01:19:21;1.40;;;0.60;;
5774;SDS011;2913;51.120;6.772;2023-08-01T01:21:46;5.55;;;0.52;;
5774;SDS011;2913;51.120;6.772;2023-08-01T01:24:13;2.38;;;0.70;;
5774;SDS011;2913;51.120;6.772;2023-08-01T01:26:40;1.83;;;0.70;;
5774;SDS011;2913;51.120;6.772;2023-08-01T01:29:06;2.15;;;0.43;;
5774;SDS011;2913;51.120;6.772;2023-08-01T01:31:33;5.60;;;0.70;;
5774;SDS011;2913;51.120;6.772;2023-08-01T01:34:02;2.28;;;0.52;;
5774;SDS011;2913;51.120;6.772;2023-08-01T01:36:28;2.05;;;0.60;;
5774;SDS011;2913;51.120;6.772;2023-08-01T01:38:57;2.95;;;0.50;;
5774;SDS011;2913;51.120;6.772;2023-08-01T01:41:22;3.45;;;0.80;;
5774;SDS011;2913;51.120;6.772;2023-08-01T01:43:48;2.55;;;0.90;;
5774;SDS011;2913;51.120;6.772;2023-08-01T01:46:14;4.47;;;1.25;;
5774;SDS011;2913;51.120;6.772;2023-08-01T01:48:39;4.97;;;0.88;;
5774;SDS011;2913;51.120;6.772;2023-08-01T01:51:07;3.38;;;0.93;;
5774;SDS011;2913;51.120;6.772;2023-08-01T01:53:33;5.68;;;1.05;;
5774;SDS011;2913;51.120;6.772;2023-08-01T01:55:59;2.35;;;1.05;;
5774;SDS011;2913;51.120;6.772;2023-08-01T01:58:27;2.38;;;0.90;;
5774;SDS011;2913;51.120;6.772;2023-08-01T02:00:55;2.95;;;1.15;;
5774;SDS011;2913;51.120;6.772;2023-08-01T02:03:22;7.53;;;1.30;;
5774;SDS011;2913;51.120;6.772;2023-08-01T02:05:50;8.25;;;1.30;;
5774;SDS011;2913;51.120;6.772;2023-08-01T02:08:16;2.03;;;1.15;;
5774;SDS011;2913;51.120;6.772;2023-08-01T02:10:44;3.85;;;1.90;;
5774;SDS011;2913;51.120;6.772;2023-08-01T02:13:09;6.07;;;1.90;;
5774;SDS011;2913;51.120;6.772;2023-08-01T02:15:37;5.15;;;1.40;;
5774;SDS011;2913;51.120;6.772;2023-08-01T02:18:05;3.88;;;1.58;;
5774;SDS011;2913;51.120;6.772;2023-08-01T02:20:31;5.00;;;1.42;;
5774;SDS011;2913;51.120;6.772;2023-08-01T02:22:57;5.22;;;1.80;;
5774;SDS011;2913;51.120;6.772;2023-08-01T02:25:25;5.85;;;1.85;;
5774;SDS011;2913;51.120;6.772;2023-08-01T02:27:53;7.93;;;1.98;;
5774;SDS011;2913;51.120;6.772;2023-08-01T02:30:18;4.78;;;1.90;;
5774;SDS011;2913;51.120;6.772;2023-08-01T02:32:46;4.40;;;2.03;;
5774;SDS011;2913;51.120;6.772;2023-08-01T02:35:12;6.13;;;2.00;;
5774;SDS011;2913;51.120;6.772;2023-08-01T02:37:37;5.25;;;1.98;;
5774;SDS011;2913;51.120;6.772;2023-08-01T02:40:07;10.60;;;2.30;;
5774;SDS011;2913;51.120;6.772;2023-08-01T02:42:34;8.35;;;2.20;;
5774;SDS011;2913;51.120;6.772;2023-08-01T02:44:59;5.00;;;2.17;;
5774;SDS011;2913;51.120;6.772;2023-08-01T02:47:25;11.57;;;2.40;;
5774;SDS011;2913;51.120;6.772;2023-08-01T02:49:50;7.60;;;2.35;;
5774;SDS011;2913;51.120;6.772;2023-08-01T02:52:16;6.38;;;2.35;;
5774;SDS011;2913;51.120;6.772;2023-08-01T02:54:42;7.40;;;2.58;;
5774;SDS011;2913;51.120;6.772;2023-08-01T02:57:10;6.32;;;2.90;;
5774;SDS011;2913;51.120;6.772;2023-08-01T02:59:35;5.80;;;2.72;;
5774;SDS011;2913;51.120;6.772;2023-08-01T03:02:03;11.48;;;3.13;;
5774;SDS011;2913;51.120;6.772;2023-08-01T03:04:29;8.23;;;3.65;;
5774;SDS011;2913;51.120;6.772;2023-08-01T03:06:55;12.27;;;3.58;;
5774;SDS011;2913;51.120;6.772;2023-08-01T03:09:20;11.45;;;3.90;;
5774;SDS011;2913;51.120;6.772;2023-08-01T03:11:46;12.20;;;4.55;;
5774;SDS011;2913;51.120;6.772;2023-08-01T03:14:14;14.77;;;4.80;;
5774;SDS011;2913;51.120;6.772;2023-08-01T03:16:39;17.17;;;5.18;;
5774;SDS011;2913;51.120;6.772;2023-08-01T03:19:09;17.98;;;5.95;;
5774;SDS011;2913;51.120;6.772;2023-08-01T03:21:35;18.58;;;6.20;;
5774;SDS011;2913;51.120;6.772;2023-08-01T03:24:01;25.67;;;6.95;;
5774;SDS011;2913;51.120;6.772;2023-08-01T03:26:27;17.63;;;6.82;;
5774;SDS011;2913;51.120;6.772;2023-08-01T03:28:53;21.80;;;7.28;;
5774;SDS011;2913;51.120;6.772;2023-08-01T03:31:24;22.17;;;7.57;;
5774;SDS011;2913;51.120;6.772;2023-08-01T03:33:50;23.73;;;8.30;;
5774;SDS011;2913;51.120;6.772;2023-08-01T03:36:18;21.23;;;9.13;;
5774;SDS011;2913;51.120;6.772;2023-08-01T03:38:44;22.13;;;8.50;;
5774;SDS011;2913;51.120;6.772;2023-08-01T03:41:14;29.63;;;9.15;;
5774;SDS011;2913;51.120;6.772;2023-08-01T03:43:44;25.70;;;8.18;;
5774;SDS011;2913;51.120;6.772;2023-08-01T03:46:15;27.48;;;8.13;;
5774;SDS011;2913;51.120;6.772;2023-08-01T03:48:41;21.98;;;9.18;;
5774;SDS011;2913;51.120;6.772;2023-08-01T03:51:10;25.67;;;10.07;;
5774;SDS011;2913;51.120;6.772;2023-08-01T03:53:36;37.97;;;10.80;;
5774;SDS011;2913;51.120;6.772;2023-08-01T03:56:01;45.33;;;11.63;;
5774;SDS011;2913;51.120;6.772;2023-08-01T03:58:29;31.58;;;11.82;;
5774;SDS011;2913;51.120;6.772;2023-08-01T04:00:57;41.42;;;12.27;;
5774;SDS011;2913;51.120;6.772;2023-08-01T04:03:25;30.75;;;11.80;;
5774;SDS011;2913;51.120;6.772;2023-08-01T04:05:50;41.20;;;13.15;;
5774;SDS011;2913;51.120;6.772;2023-08-01T04:08:18;36.80;;;13.43;;
5774;SDS011;2913;51.120;6.772;2023-08-01T04:10:44;37.13;;;12.85;;
5774;SDS011;2913;51.120;6.772;2023-08-01T04:13:10;36.72;;;13.73;;
5774;SDS011;2913;51.120;6.772;2023-08-01T04:15:35;36.08;;;13.52;;
5774;SDS011;2913;51.120;6.772;2023-08-01T04:18:01;43.20;;;13.70;;
5774;SDS011;2913;51.120;6.772;2023-08-01T04:20:27;38.60;;;13.05;;
5774;SDS011;2913;51.120;6.772;2023-08-01T04:22:57;41.50;;;13.10;;
5774;SDS011;2913;51.120;6.772;2023-08-01T04:25:27;45.58;;;14.38;;
5774;SDS011;2913;51.120;6.772;2023-08-01T04:27:53;41.13;;;14.02;;
5774;SDS011;2913;51.120;6.772;2023-08-01T04:30:19;35.60;;;13.20;;
5774;SDS011;2913;51.120;6.772;2023-08-01T04:32:44;44.05;;;14.13;;
5774;SDS011;2913;51.120;6.772;2023-08-01T04:35:12;44.25;;;13.13;;
5774;SDS011;2913;51.120;6.772;2023-08-01T04:37:38;40.60;;;13.43;;
5774;SDS011;2913;51.120;6.772;2023-08-01T04:40:06;38.17;;;12.75;;
5774;SDS011;2913;51.120;6.772;2023-08-01T04:42:35;30.33;;;12.05;;
5774;SDS011;2913;51.120;6.772;2023-08-01T04:45:02;39.33;;;12.52;;
5774;SDS011;2913;51.120;6.772;2023-08-01T04:47:28;40.72;;;13.05;;
5774;SDS011;2913;51.120;6.772;2023-08-01T04:49:54;43.80;;;12.05;;
5774;SDS011;2913;51.120;6.772;2023-08-01T04:52:22;41.00;;;12.40;;
5774;SDS011;2913;51.120;6.772;2023-08-01T04:54:52;35.63;;;12.20;;
5774;SDS011;2913;51.120;6.772;2023-08-01T04:57:20;34.95;;;10.93;;
5774;SDS011;2913;51.120;6.772;2023-08-01T04:59:45;33.60;;;11.20;;
5774;SDS011;2913;51.120;6.772;2023-08-01T05:02:14;39.03;;;11.63;;
5774;SDS011;2913;51.120;6.772;2023-08-01T05:04:44;28.75;;;11.40;;
5774;SDS011;2913;51.120;6.772;2023-08-01T05:07:10;29.48;;;11.35;;
5774;SDS011;2913;51.120;6.772;2023-08-01T05:09:35;31.02;;;11.55;;
5774;SDS011;2913;51.120;6.772;2023-08-01T05:12:03;37.60;;;11.65;;
5774;SDS011;2913;51.120;6.772;2023-08-01T05:14:32;34.05;;;11.80;;
5774;SDS011;2913;51.120;6.772;2023-08-01T05:17:00;44.05;;;11.27;;
5774;SDS011;2913;51.120;6.772;2023-08-01T05:19:30;32.60;;;10.13;;
5774;SDS011;2913;51.120;6.772;2023-08-01T05:21:59;43.70;;;10.75;;
5774;SDS011;2913;51.120;6.772;2023-08-01T05:24:24;37.05;;;10.57;;
5774;SDS011;2913;51.120;6.772;2023-08-01T05:26:52;35.40;;;10.02;;
5774;SDS011;2913;51.120;6.772;2023-08-01T05:29:18;33.00;;;10.75;;
5774;SDS011;2913;51.120;6.772;2023-08-01T05:31:43;34.65;;;10.35;;
5774;SDS011;2913;51.120;6.772;2023-08-01T05:34:09;30.00;;;10.52;;
5774;SDS011;2913;51.120;6.772;2023-08-01T05:36:34;33.83;;;8.57;;
5774;SDS011;2913;51.120;6.772;2023-08-01T05:39:02;36.75;;;9.50;;
5774;SDS011;2913;51.120;6.772;2023-08-01T05:41:30;37.15;;;9.52;;
5774;SDS011;2913;51.120;6.772;2023-08-01T05:43:57;38.10;;;9.65;;
5774;SDS011;2913;51.120;6.772;2023-08-01T05:46:26;38.50;;;9.18;;
5774;SDS011;2913;51.120;6.772;2023-08-01T05:48:53;30.70;;;10.30;;
5774;SDS011;2913;51.120;6.772;2023-08-01T05:51:19;34.50;;;9.05;;
5774;SDS011;2913;51.120;6.772;2023-08-01T05:53:47;39.30;;;9.35;;
5774;SDS011;2913;51.120;6.772;2023-08-01T05:56:15;31.42;;;9.25;;
5774;SDS011;2913;51.120;6.772;2023-08-01T05:58:44;37.83;;;10.73;;
5774;SDS011;2913;51.120;6.772;2023-08-01T06:01:10;30.67;;;9.70;;
5774;SDS011;2913;51.120;6.772;2023-08-01T06:03:36;39.05;;;9.90;;
5774;SDS011;2913;51.120;6.772;2023-08-01T06:06:02;28.77;;;9.43;;
5774;SDS011;2913;51.120;6.772;2023-08-01T06:08:30;33.35;;;9.35;;
5774;SDS011;2913;51.120;6.772;2023-08-01T06:10:58;37.95;;;9.45;;
5774;SDS011;2913;51.120;6.772;2023-08-01T06:13:26;26.65;;;9.15;;
5774;SDS011;2913;51.120;6.772;2023-08-01T06:15:55;34.40;;;9.05;;
5774;SDS011;2913;51.120;6.772;2023-08-01T06:18:21;38.05;;;8.80;;
5774;SDS011;2913;51.120;6.772;2023-08-01T06:20:47;29.40;;;9.10;;
5774;SDS011;2913;51.120;6.772;2023-08-01T06:23:15;31.05;;;8.27;;
5774;SDS011;2913;51.120;6.772;2023-08-01T06:25:43;28.35;;;8.25;;
5774;SDS011;2913;51.120;6.772;2023-08-01T06:28:11;27.15;;;8.73;;
5774;SDS011;2913;51.120;6.772;2023-08-01T06:30:37;29.38;;;8.65;;
5774;SDS011;2913;51.120;6.772;2023-08-01T06:33:05;25.50;;;8.40;;
5774;SDS011;2913;51.120;6.772;2023-08-01T06:35:34;33.15;;;8.00;;
5774;SDS011;2913;51.120;6.772;2023-08-01T06:37:59;48.17;;;9.23;;
5774;SDS011;2913;51.120;6.772;2023-08-01T06:40:25;33.03;;;9.05;;
5774;SDS011;2913;51.120;6.772;2023-08-01T06:42:50;23.70;;;8.85;;
5774;SDS011;2913;51.120;6.772;2023-08-01T06:45:16;33.28;;;8.82;;
5774;SDS011;2913;51.120;6.772;2023-08-01T06:47:44;30.80;;;8.65;;
5774;SDS011;2913;51.120;6.772;2023-08-01T06:50:12;42.10;;;8.35;;
5774;SDS011;2913;51.120;6.772;2023-08-01T06:52:40;35.97;;;8.25;;
5774;SDS011;2913;51.120;6.772;2023-08-01T06:55:05;41.00;;;8.35;;
5774;SDS011;2913;51.120;6.772;2023-08-01T06:57:31;29.75;;;8.77;;
5774;SDS011;2913;51.120;6.772;2023-08-01T07:00:00;27.55;;;8.85;;
5774;SDS011;2913;51.120;6.772;2023-08-01T07:02:28;33.47;;;8.70;;
5774;SDS011;2913;51.120;6.772;2023-08-01T07:04:53;36.80;;;8.57;;
5774;SDS011;2913;51.120;6.772;2023-08-01T07:07:22;28.30;;;8.43;;
5774;SDS011;2913;51.120;6.772;2023-08-01T07:09:47;27.70;;;8.68;;
5774;SDS011;2913;51.120;6.772;2023-08-01T07:12:13;30.27;;;8.90;;
5774;SDS011;2913;51.120;6.772;2023-08-01T07:14:40;32.03;;;7.80;;
5774;SDS011;2913;51.120;6.772;2023-08-01T07:17:09;35.95;;;8.55;;
5774;SDS011;2913;51.120;6.772;2023-08-01T07:19:37;33.10;;;8.27;;
5774;SDS011;2913;51.120;6.772;2023-08-01T07:22:02;29.35;;;8.73;;
5774;SDS011;2913;51.120;6.772;2023-08-01T07:24:28;36.97;;;9.75;;
5774;SDS011;2913;51.120;6.772;2023-08-01T07:26:54;22.55;;;7.88;;
5774;SDS011;2913;51.120;6.772;2023-08-01T07:29:21;30.75;;;9.27;;
5774;SDS011;2913;51.120;6.772;2023-08-01T07:31:49;36.70;;;9.48;;
5774;SDS011;2913;51.120;6.772;2023-08-01T07:34:17;27.30;;;8.40;;
5774;SDS011;2913;51.120;6.772;2023-08-01T07:36:43;34.00;;;8.60;;
5774;SDS011;2913;51.120;6.772;2023-08-01T07:39:10;29.17;;;9.55;;
5774;SDS011;2913;51.120;6.772;2023-08-01T07:41:36;27.15;;;9.32;;
5774;SDS011;2913;51.120;6.772;2023-08-01T07:44:02;26.25;;;9.77;;
5774;SDS011;2913;51.120;6.772;2023-08-01T07:46:31;44.30;;;9.90;;
5774;SDS011;2913;51.120;6.772;2023-08-01T07:48:59;37.25;;;9.48;;
5774;SDS011;2913;51.120;6.772;2023-08-01T07:51:27;37.45;;;9.30;;
5774;SDS011;2913;51.120;6.772;2023-08-01T07:53:54;21.38;;;9.07;;
5774;SDS011;2913;51.120;6.772;2023-08-01T07:56:20;31.50;;;8.68;;
5774;SDS011;2913;51.120;6.772;2023-08-01T07:58:48;30.45;;;9.40;;
5774;SDS011;2913;51.120;6.772;2023-08-01T08:01:14;30.98;;;8.35;;
5774;SDS011;2913;51.120;6.772;2023-08-01T08:03:39;28.35;;;8.90;;
5774;SDS011;2913;51.120;6.772;2023-08-01T08:06:05;31.00;;;8.93;;
5774;SDS011;2913;51.120;6.772;2023-08-01T08:08:31;27.00;;;8.65;;
5774;SDS011;2913;51.120;6.772;2023-08-01T08:10:59;25.42;;;8.98;;
5774;SDS011;2913;51.120;6.772;2023-08-01T08:13:27;29.67;;;9.02;;
5774;SDS011;2913;51.120;6.772;2023-08-01T08:15:56;30.13;;;8.95;;
5774;SDS011;2913;51.120;6.772;2023-08-01T08:18:24;30.23;;;9.27;;
5774;SDS011;2913;51.120;6.772;2023-08-01T08:20:52;32.40;;;8.85;;
5774;SDS011;2913;51.120;6.772;2023-08-01T08:23:17;40.00;;;8.75;;
5774;SDS011;2913;51.120;6.772;2023-08-01T08:25:47;33.22;;;8.27;;
5774;SDS011;2913;51.120;6.772;2023-08-01T08:28:16;30.85;;;7.72;;
5774;SDS011;2913;51.120;6.772;2023-08-01T08:30:54;34.50;;;9.27;;
5774;SDS011;2913;51.120;6.772;2023-08-01T08:33:20;39.88;;;8.75;;
5774;SDS011;2913;51.120;6.772;2023-08-01T08:35:46;30.58;;;8.73;;
5774;SDS011;2913;51.120;6.772;2023-08-01T08:38:12;32.38;;;7.90;;
5774;SDS011;2913;51.120;6.772;2023-08-01T08:40:39;25.85;;;7.60;;
5774;SDS011;2913;51.120;6.772;2023-08-01T08:43:11;32.17;;;8.85;;
5774;SDS011;2913;51.120;6.772;2023-08-01T08:45:37;33.78;;;7.85;;
5774;SDS011;2913;51.120;6.772;2023-08-01T08:48:09;38.63;;;8.60;;
5774;SDS011;2913;51.120;6.772;2023-08-01T08:50:43;28.70;;;6.60;;
5774;SDS011;2913;51.120;6.772;2023-08-01T08:53:13;36.05;;;8.43;;
5774;SDS011;2913;51.120;6.772;2023-08-01T08:55:42;27.38;;;7.53;;
5774;SDS011;2913;51.120;6.772;2023-08-01T08:58:08;30.92;;;7.30;;
5774;SDS011;2913;51.120;6.772;2023-08-01T09:00:37;25.88;;;7.38;;
5774;SDS011;2913;51.120;6.772;2023-08-01T09:03:07;20.17;;;7.13;;
5774;SDS011;2913;51.120;6.772;2023-08-01T09:05:39;27.00;;;7.25;;
5774;SDS011;2913;51.120;6.772;2023-08-01T09:08:15;33.75;;;7.28;;
5774;SDS011;2913;51.120;6.772;2023-08-01T09:10:47;25.20;;;7.47;;
5774;SDS011;2913;51.120;6.772;2023-08-01T09:13:13;27.90;;;7.32;;
5774;SDS011;2913;51.120;6.772;2023-08-01T09:15:42;29.58;;;7.28;;
5774;SDS011;2913;51.120;6.772;2023-08-01T09:18:16;25.95;;;7.63;;
5774;SDS011;2913;51.120;6.772;2023-08-01T09:20:48;22.90;;;7.53;;
5774;SDS011;2913;51.120;6.772;2023-08-01T09:23:17;27.17;;;7.47;;
5774;SDS011;2913;51.120;6.772;2023-08-01T09:25:45;29.73;;;8.27;;
5774;SDS011;2913;51.120;6.772;2023-08-01T09:33:14;31.15;;;7.32;;
5774;SDS011;2913;51.120;6.772;2023-08-01T09:35:40;20.80;;;7.68;;
5774;SDS011;2913;51.120;6.772;2023-08-01T09:38:12;23.58;;;7.25;;
5774;SDS011;2913;51.120;6.772;2023-08-01T09:40:39;18.67;;;5.97;;
5774;SDS011;2913;51.120;6.772;2023-08-01T09:43:09;28.63;;;7.03;;
5774;SDS011;2913;51.120;6.772;2023-08-01T09:45:48;29.45;;;6.82;;
5774;SDS011;2913;51.120;6.772;2023-08-01T09:48:27;22.63;;;6.25;;
5774;SDS011;2913;51.120;6.772;2023-08-01T09:53:50;25.83;;;6.40;;
5774;SDS011;2913;51.120;6.772;2023-08-01T09:56:18;26.45;;;6.82;;
5774;SDS011;2913;51.120;6.772;2023-08-01T09:58:48;20.13;;;6.20;;
5774;SDS011;2913;51.120;6.772;2023-08-01T10:01:14;26.20;;;7.45;;
5774;SDS011;2913;51.120;6.772;2023-08-01T10:03:44;21.73;;;5.93;;
5774;SDS011;2913;51.120;6.772;2023-08-01T10:06:16;17.77;;;6.70;;
5774;SDS011;2913;51.120;6.772;2023-08-01T10:08:45;29.48;;;6.38;;
5774;SDS011;2913;51.120;6.772;2023-08-01T10:11:11;23.75;;;7.32;;
5774;SDS011;2913;51.120;6.772;2023-08-01T10:13:39;17.38;;;6.40;;
5774;SDS011;2913;51.120;6.772;2023-08-01T10:16:09;20.30;;;6.30;;
5774;SDS011;2913;51.120;6.772;2023-08-01T10:18:36;32.75;;;6.88;;
5774;SDS011;2913;51.120;6.772;2023-08-01T10:21:03;18.63;;;6.15;;
5774;SDS011;2913;51.120;6.772;2023-08-01T10:23:33;19.55;;;7.35;;
5774;SDS011;2913;51.120;6.772;2023-08-01T10:26:05;28.02;;;7.82;;
5774;SDS011;2913;51.120;6.772;2023-08-01T10:28:34;25.55;;;6.82;;
5774;SDS011;2913;51.120;6.772;2023-08-01T10:31:10;16.45;;;5.70;;
5774;SDS011;2913;51.120;6.772;2023-08-01T10:33:37;31.10;;;7.63;;
5774;SDS011;2913;51.120;6.772;2023-08-01T10:38:57;21.65;;;6.22;;
5774;SDS011;2913;51.120;6.772;2023-08-01T10:43:52;16.83;;;5.60;;
5774;SDS011;2913;51.120;6.772;2023-08-01T10:47:11;26.77;;;6.28;;
5774;SDS011;2913;51.120;6.772;2023-08-01T10:49:37;30.27;;;7.45;;
5774;SDS011;2913;51.120;6.772;2023-08-01T10:52:16;26.05;;;6.68;;
5774;SDS011;2913;51.120;6.772;2023-08-01T10:54:45;25.92;;;7.72;;
5774;SDS011;2913;51.120;6.772;2023-08-01T10:57:17;23.25;;;6.97;;
5774;SDS011;2913;51.120;6.772;2023-08-01T10:59:43;28.23;;;6.78;;
5774;SDS011;2913;51.120;6.772;2023-08-01T11:02:09;26.55;;;6.20;;
5774;SDS011;2913;51.120;6.772;2023-08-01T11:04:37;22.33;;;6.53;;
5774;SDS011;2913;51.120;6.772;2023-08-01T11:07:08;24.23;;;6.85;;
5774;SDS011;2913;51.120;6.772;2023-08-01T11:09:37;23.35;;;6.13;;
5774;SDS011;2913;51.120;6.772;2023-08-01T11:12:07;18.98;;;6.75;;
5774;SDS011;2913;51.120;6.772;2023-08-01T11:14:32;24.45;;;6.65;;
5774;SDS011;2913;51.120;6.772;2023-08-01T11:16:58;17.73;;;6.22;;
5774;SDS011;2913;51.120;6.772;2023-08-01T11:19:29;20.75;;;6.25;;
5774;SDS011;2913;51.120;6.772;2023-08-01T11:21:57;17.85;;;6.47;;
5774;SDS011;2913;51.120;6.772;2023-08-01T11:24:23;21.77;;;6.65;;
5774;SDS011;2913;51.120;6.772;2023-08-01T11:26:53;25.27;;;6.05;;
5774;SDS011;2913;51.120;6.772;2023-08-01T11:29:19;18.58;;;6.22;;
5774;SDS011;2913;51.120;6.772;2023-08-01T11:32:18;25.05;;;6.32;;
5774;SDS011;2913;51.120;6.772;2023-08-01T11:34:40;16.33;;;4.93;;
5774;SDS011;2913;51.120;6.772;2023-08-01T11:37:17;11.83;;;3.30;;
5774;SDS011;2913;51.120;6.772;2023-08-01T11:39:46;17.10;;;3.25;;
5774;SDS011;2913;51.120;6.772;2023-08-01T11:42:15;11.50;;;3.28;;
5774;SDS011;2913;51.120;6.772;2023-08-01T11:44:42;15.93;;;3.63;;
5774;SDS011;2913;51.120;6.772;2023-08-01T11:47:13;11.48;;;3.50;;
5774;SDS011;2913;51.120;6.772;2023-08-01T11:49:45;16.00;;;3.92;;
5774;SDS011;2913;51.120;6.772;2023-08-01T11:52:27;12.77;;;3.90;;
5774;SDS011;2913;51.120;6.772;2023-08-01T11:54:54;15.43;;;4.60;;
5774;SDS011;2913;51.120;6.772;2023-08-01T11:57:22;11.95;;;4.70;;
5774;SDS011;2913;51.120;6.772;2023-08-01T11:59:49;19.83;;;5.82;;
5774;SDS011;2913;51.120;6.772;2023-08-01T12:02:34;18.40;;;5.50;;
5774;SDS011;2913;51.120;6.772;2023-08-01T12:05:02;23.20;;;5.60;;
5774;SDS011;2913;51.120;6.772;2023-08-01T12:07:28;12.65;;;5.57;;
5774;SDS011;2913;51.120;6.772;2023-08-01T12:09:55;20.80;;;5.45;;
5774;SDS011;2913;51.120;6.772;2023-08-01T12:12:27;16.45;;;6.38;;
5774;SDS011;2913;51.120;6.772;2023-08-01T12:14:55;18.38;;;5.45;;
5774;SDS011;2913;51.120;6.772;2023-08-01T12:17:21;19.58;;;6.32;;
5774;SDS011;2913;51.120;6.772;2023-08-01T12:19:50;19.67;;;7.43;;
5774;SDS011;2913;51.120;6.772;2023-08-01T12:22:16;16.95;;;5.50;;
5774;SDS011;2913;51.120;6.772;2023-08-01T12:24:44;21.02;;;6.45;;
5774;SDS011;2913;51.120;6.772;2023-08-01T12:27:09;23.70;;;6.63;;
5774;SDS011;2913;51.120;6.772;2023-08-01T12:29:35;31.42;;;7.22;;
5774;SDS011;2913;51.120;6.772;2023-08-01T12:32:04;17.15;;;6.25;;
5774;SDS011;2913;51.120;6.772;2023-08-01T12:34:31;17.63;;;6.47;;
5774;SDS011;2913;51.120;6.772;2023-08-01T12:37:00;15.15;;;5.80;;
5774;SDS011;2913;51.120;6.772;2023-08-01T12:39:30;19.92;;;6.97;;
5774;SDS011;2913;51.120;6.772;2023-08-01T12:42:00;20.70;;;6.28;;
5774;SDS011;2913;51.120;6.772;2023-08-01T12:44:26;17.30;;;6.15;;
5774;SDS011;2913;51.120;6.772;2023-08-01T12:46:52;20.15;;;6.40;;
5774;SDS011;2913;51.120;6.772;2023-08-01T12:49:18;24.92;;;6.50;;
5774;SDS011;2913;51.120;6.772;2023-08-01T12:51:44;20.05;;;8.38;;
5774;SDS011;2913;51.120;6.772;2023-08-01T12:54:12;22.13;;;7.38;;
5774;SDS011;2913;51.120;6.772;2023-08-01T12:56:37;16.08;;;6.72;;
5774;SDS011;2913;51.120;6.772;2023-08-01T12:59:03;34.70;;;8.32;;
5774;SDS011;2913;51.120;6.772;2023-08-01T13:01:29;25.90;;;7.07;;
5774;SDS011;2913;51.120;6.772;2023-08-01T13:03:54;25.05;;;7.47;;
5774;SDS011;2913;51.120;6.772;2023-08-01T13:06:22;20.80;;;8.05;;
5774;SDS011;2913;51.120;6.772;2023-08-01T13:08:50;19.35;;;7.25;;
5774;SDS011;2913;51.120;6.772;2023-08-01T13:11:16;27.40;;;7.97;;
5774;SDS011;2913;51.120;6.772;2023-08-01T13:13:44;23.17;;;7.70;;
5774;SDS011;2913;51.120;6.772;2023-08-01T13:16:10;42.15;;;8.80;;
5774;SDS011;2913;51.120;6.772;2023-08-01T13:18:36;29.10;;;8.75;;
5774;SDS011;2913;51.120;6.772;2023-08-01T13:21:08;27.42;;;8.18;;
5774;SDS011;2913;51.120;6.772;2023-08-01T13:23:34;26.35;;;9.30;;
5774;SDS011;2913;51.120;6.772;2023-08-01T13:26:02;21.98;;;7.18;;
5774;SDS011;2913;51.120;6.772;2023-08-01T13:28:28;24.73;;;6.57;;
5774;SDS011;2913;51.120;6.772;2023-08-01T13:30:53;21.85;;;7.70;;
5774;SDS011;2913;51.120;6.772;2023-08-01T13:33:19;25.92;;;8.63;;
5774;SDS011;2913;51.120;6.772;2023-08-01T13:35:45;17.38;;;7.68;;
5774;SDS011;2913;51.120;6.772;2023-08-01T13:38:10;18.13;;;7.32;;
5774;SDS011;2913;51.120;6.772;2023-08-01T13:40:40;22.40;;;7.80;;
5774;SDS011;2913;51.120;6.772;2023-08-01T13:43:05;25.23;;;7.53;;
5774;SDS011;2913;51.120;6.772;2023-08-01T13:45:31;36.88;;;9.05;;
5774;SDS011;2913;51.120;6.772;2023-08-01T13:47:58;17.17;;;7.15;;
5774;SDS011;2913;51.120;6.772;2023-08-01T13:50:25;34.38;;;8.35;;
5774;SDS011;2913;51.120;6.772;2023-08-01T13:52:53;24.05;;;7.90;;
5774;SDS011;2913;51.120;6.772;2023-08-01T13:55:19;37.72;;;9.18;;
5774;SDS011;2913;51.120;6.772;2023-08-01T13:57:45;27.55;;;9.25;;
5774;SDS011;2913;51.120;6.772;2023-08-01T14:00:11;34.75;;;8.65;;
5774;SDS011;2913;51.120;6.772;2023-08-01T14:02:37;31.63;;;10.02;;
5774;SDS011;2913;51.120;6.772;2023-08-01T14:05:05;27.35;;;8.05;;
5774;SDS011;2913;51.120;6.772;2023-08-01T14:07:30;24.65;;;7.82;;
5774;SDS011;2913;51.120;6.772;2023-08-01T14:09:56;34.90;;;8.43;;
5774;SDS011;2913;51.120;6.772;2023-08-01T14:12:24;33.50;;;8.40;;
5774;SDS011;2913;51.120;6.772;2023-08-01T14:14:53;39.42;;;8.07;;
5774;SDS011;2913;51.120;6.772;2023-08-01T14:17:19;27.58;;;7.70;;
5774;SDS011;2913;51.120;6.772;2023-08-01T14:19:47;20.42;;;8.23;;
5774;SDS011;2913;51.120;6.772;2023-08-01T14:22:15;20.38;;;8.23;;
5774;SDS011;2913;51.120;6.772;2023-08-01T14:24:41;26.83;;;7.85;;
5774;SDS011;2913;51.120;6.772;2023-08-01T14:27:07;24.73;;;7.38;;
5774;SDS011;2913;51.120;6.772;2023-08-01T14:29:33;22.42;;;7.90;;
5774;SDS011;2913;51.120;6.772;2023-08-01T14:31:59;22.55;;;7.60;;
5774;SDS011;2913;51.120;6.772;2023-08-01T14:34:24;17.90;;;6.90;;
5774;SDS011;2913;51.120;6.772;2023-08-01T14:36:52;25.73;;;6.45;;
5774;SDS011;2913;51.120;6.772;2023-08-01T14:39:21;20.00;;;6.72;;
5774;SDS011;2913;51.120;6.772;2023-08-01T14:41:47;20.02;;;6.85;;
5774;SDS011;2913;51.120;6.772;2023-08-01T14:44:17;20.98;;;6.55;;
5774;SDS011;2913;51.120;6.772;2023-08-01T14:46:43;24.15;;;6.70;;
5774;SDS011;2913;51.120;6.772;2023-08-01T14:49:11;24.95;;;7.00;;
5774;SDS011;2913;51.120;6.772;2023-08-01T14:51:37;17.75;;;6.00;;
5774;SDS011;2913;51.120;6.772;2023-08-01T14:54:02;27.40;;;5.75;;
5774;SDS011;2913;51.120;6.772;2023-08-01T14:56:30;20.20;;;5.20;;
5774;SDS011;2913;51.120;6.772;2023-08-01T14:58:56;18.05;;;4.60;;
5774;SDS011;2913;51.120;6.772;2023-08-01T15:01:24;12.40;;;4.50;;
5774;SDS011;2913;51.120;6.772;2023-08-01T15:03:53;18.35;;;4.82;;
5774;SDS011;2913;51.120;6.772;2023-08-01T15:06:18;19.35;;;4.70;;
5774;SDS011;2913;51.120;6.772;2023-08-01T15:08:44;17.67;;;4.78;;
5774;SDS011;2913;51.120;6.772;2023-08-01T15:11:10;13.23;;;4.85;;
5774;SDS011;2913;51.120;6.772;2023-08-01T15:13:37;14.50;;;4.15;;
5774;SDS011;2913;51.120;6.772;2023-08-01T15:16:08;13.90;;;3.75;;
5774;SDS011;2913;51.120;6.772;2023-08-01T15:18:36;19.95;;;4.93;;